Time;durP1;ratioP1;P1;durP2;ratioP2;P2;SDS_P1;SDS_P2;PMS_P1;PMS_P2;Temp;Humidity;BMP_temperature;BMP_pressure;BME280_temperature;BME280_humidity;BME280_pressure;Samples;Min_cycle;Max_cycle;Signal;HPM_P1;HPM_P2
2023/07/21 00:00:51;;;;;;;27.65;26.15;;;;;;;;;;5082747;28;20044;-65
2023/07/21 00:03:41;;;;;;;29.23;27.70;;;;;;;;;;5082894;28;20133;-67
2023/07/21 00:06:27;;;;;;;32.85;31.15;;;;;;;;;;5085545;28;20039;-69
2023/07/21 00:09:12;;;;;;;21.80;20.63;;;;;;;;;;5071571;28;20046;-70
2023/07/21 00:11:59;;;;;;;22.67;21.45;;;;;;;;;;5082858;28;20046;-70
2023/07/21 00:14:44;;;;;;;24.95;23.63;;;;;;;;;;5082466;28;20456;-65
2023/07/21 00:17:31;;;;;;;23.73;22.42;;;;;;;;;;5084585;28;20059;-69
2023/07/21 00:20:21;;;;;;;27.45;26.02;;;;;;;;;;5085951;28;20036;-65
2023/07/21 00:23:07;;;;;;;48.28;45.80;;;;;;;;;;5083194;28;20040;-69
2023/07/21 00:25:54;;;;;;;54.05;51.33;;;;;;;;;;5082191;28;20031;-70
2023/07/21 00:28:40;;;;;;;42.05;39.85;;;;;;;;;;5083334;28;20040;-70
2023/07/21 00:31:25;;;;;;;53.10;50.42;;;;;;;;;;5086805;28;20115;-65
2023/07/21 00:34:11;;;;;;;46.00;43.65;;;;;;;;;;5076926;28;20680;-69
2023/07/21 00:36:57;;;;;;;51.97;49.38;;;;;;;;;;5081667;28;20120;-65
2023/07/21 00:39:44;;;;;;;52.92;50.25;;;;;;;;;;5086867;28;20191;-65
2023/07/21 00:42:31;;;;;;;50.67;48.10;;;;;;;;;;5083220;28;20453;-65
2023/07/21 00:45:16;;;;;;;54.30;51.50;;;;;;;;;;5071509;28;20115;-65
2023/07/21 00:48:05;;;;;;;53.95;51.22;;;;;;;;;;5086567;28;20032;-69
2023/07/21 00:50:53;;;;;;;32.55;30.85;;;;;;;;;;5081971;28;20036;-66
2023/07/21 00:53:38;;;;;;;27.38;25.90;;;;;;;;;;5086095;28;20376;-70
2023/07/21 00:56:25;;;;;;;40.00;37.97;;;;;;;;;;5081387;28;20101;-72
2023/07/21 00:59:10;;;;;;;38.67;36.67;;;;;;;;;;5082590;28;20042;-72
2023/07/21 01:01:56;;;;;;;61.08;58.00;;;;;;;;;;5065350;28;20101;-68
2023/07/21 01:04:44;;;;;;;47.50;45.10;;;;;;;;;;5085749;28;20047;-71
2023/07/21 01:07:31;;;;;;;46.70;44.33;;;;;;;;;;5081554;28;20048;-71
2023/07/21 01:10:20;;;;;;;28.67;27.17;;;;;;;;;;5079615;28;20455;-67
2023/07/21 01:13:07;;;;;;;37.20;35.30;;;;;;;;;;5082435;28;20071;-71
2023/07/21 01:15:55;;;;;;;58.78;55.78;;;;;;;;;;5084051;28;20047;-68
2023/07/21 01:18:42;;;;;;;43.35;41.15;;;;;;;;;;5082117;28;20405;-71
2023/07/21 01:21:37;;;;;;;35.25;33.42;;;;;;;;;;5080122;28;20036;-71
2023/07/21 01:24:31;;;;;;;44.30;42.05;;;;;;;;;;5068233;28;20043;-67
2023/07/21 01:27:21;;;;;;;29.27;27.75;;;;;;;;;;5083355;28;20036;-67
2023/07/21 01:30:13;;;;;;;31.00;29.40;;;;;;;;;;5082702;28;20043;-71
2023/07/21 01:33:00;;;;;;;50.85;48.22;;;;;;;;;;5081281;28;20055;-67
2023/07/21 01:35:48;;;;;;;32.75;31.05;;;;;;;;;;5067185;28;20048;-67
2023/07/21 01:38:35;;;;;;;33.15;31.45;;;;;;;;;;5083197;28;20034;-68
2023/07/21 01:41:21;;;;;;;33.97;32.05;;;;;;;;;;5080815;28;20037;-67
2023/07/21 01:44:07;;;;;;;30.52;28.90;;;;;;;;;;5078103;28;20119;-67
2023/07/21 01:46:53;;;;;;;29.77;28.23;;;;;;;;;;5079411;28;20406;-67
2023/07/21 01:49:39;;;;;;;30.30;28.02;;;;;;;;;;5071850;28;20106;-67
2023/07/21 01:52:30;;;;;;;37.30;35.38;;;;;;;;;;5080440;28;20051;-70
2023/07/21 01:55:54;;;;;;;36.53;34.63;;;;;;;;;;5081707;28;20043;-70
2023/07/21 01:58:41;;;;;;;41.40;39.00;;;;;;;;;;5080878;28;20054;-72
2023/07/21 02:01:28;;;;;;;45.00;42.63;;;;;;;;;;5078661;28;20040;-67
2023/07/21 02:04:14;;;;;;;47.08;44.67;;;;;;;;;;5073187;28;20726;-72
2023/07/21 02:06:59;;;;;;;48.30;45.83;;;;;;;;;;5079453;28;20056;-70
2023/07/21 02:09:45;;;;;;;41.55;39.40;;;;;;;;;;5078292;28;20048;-69
2023/07/21 02:12:31;;;;;;;63.63;60.40;;;;;;;;;;5085650;28;20577;-70
2023/07/21 02:15:17;;;;;;;56.33;53.47;;;;;;;;;;5076104;28;20036;-69
2023/07/21 02:18:03;;;;;;;55.38;52.50;;;;;;;;;;5083053;28;20101;-68
2023/07/21 02:20:48;;;;;;;63.00;59.75;;;;;;;;;;5082674;28;20043;-69
2023/07/21 02:23:34;;;;;;;90.35;85.72;;;;;;;;;;5083779;28;20048;-69
2023/07/21 02:26:20;;;;;;;84.25;79.93;;;;;;;;;;5079849;28;20101;-68
2023/07/21 02:29:05;;;;;;;44.03;41.72;;;;;;;;;;5085713;28;20048;-69
2023/07/21 02:31:51;;;;;;;51.78;49.03;;;;;;;;;;5074571;28;20112;-69
2023/07/21 02:34:39;;;;;;;71.28;67.60;;;;;;;;;;5084655;28;20123;-69
2023/07/21 02:37:25;;;;;;;67.80;64.35;;;;;;;;;;5080892;28;20039;-69
2023/07/21 02:40:12;;;;;;;69.32;65.78;;;;;;;;;;5082211;28;20426;-69
2023/07/21 02:42:58;;;;;;;67.05;63.60;;;;;;;;;;5082551;28;20048;-70
2023/07/21 02:45:54;;;;;;;78.45;74.40;;;;;;;;;;5079195;28;20095;-69
2023/07/21 02:48:40;;;;;;;86.43;81.95;;;;;;;;;;5081784;28;20038;-69
2023/07/21 02:51:25;;;;;;;102.80;97.43;;;;;;;;;;5080975;28;20039;-69
2023/07/21 02:54:11;;;;;;;120.10;113.18;;;;;;;;;;5084176;28;20405;-71
2023/07/21 02:56:57;;;;;;;142.57;135.20;;;;;;;;;;5071162;28;20040;-71
2023/07/21 02:59:43;;;;;;;161.40;152.98;;;;;;;;;;5070103;28;20050;-68
2023/07/21 03:02:30;;;;;;;169.00;160.35;;;;;;;;;;5084305;28;20048;-70
2023/07/21 03:05:16;;;;;;;190.85;181.05;;;;;;;;;;5080295;28;20067;-68
2023/07/21 03:08:03;;;;;;;189.65;180.07;;;;;;;;;;5082187;28;20352;-68
2023/07/21 03:10:49;;;;;;;191.52;181.95;;;;;;;;;;5086240;28;20045;-68
2023/07/21 03:13:34;;;;;;;205.35;195.07;;;;;;;;;;5083195;28;20127;-68
2023/07/21 03:16:20;;;;;;;157.50;149.63;;;;;;;;;;5085141;28;20111;-70
2023/07/21 03:19:06;;;;;;;159.50;151.55;;;;;;;;;;5084287;28;20031;-70
2023/07/21 03:21:54;;;;;;;192.23;182.63;;;;;;;;;;5084384;28;20044;-68
2023/07/21 03:24:40;;;;;;;209.77;199.27;;;;;;;;;;5070691;28;20070;-70
2023/07/21 03:27:26;;;;;;;218.23;207.43;;;;;;;;;;5068655;28;20448;-68
2023/07/21 03:30:13;;;;;;;255.55;242.38;;;;;;;;;;5083505;28;20052;-68
2023/07/21 03:32:59;;;;;;;265.08;251.80;;;;;;;;;;5086198;28;20048;-66
2023/07/21 03:35:47;;;;;;;263.58;250.38;;;;;;;;;;5083141;28;20051;-67
2023/07/21 03:38:35;;;;;;;250.57;238.00;;;;;;;;;;5085119;28;20371;-69
2023/07/21 03:41:21;;;;;;;206.88;196.68;;;;;;;;;;5079639;28;20138;-69
2023/07/21 03:44:09;;;;;;;224.15;213.13;;;;;;;;;;5082027;28;20032;-67
2023/07/21 03:46:55;;;;;;;231.15;219.68;;;;;;;;;;5085893;28;20036;-66
2023/07/21 03:49:41;;;;;;;253.70;241.07;;;;;;;;;;5082640;28;20032;-67
2023/07/21 03:52:29;;;;;;;258.17;245.02;;;;;;;;;;5080318;28;20479;-69
2023/07/21 03:55:17;;;;;;;262.83;249.80;;;;;;;;;;5085483;28;20043;-68
2023/07/21 03:58:02;;;;;;;230.95;219.52;;;;;;;;;;5079799;28;20117;-67
2023/07/21 04:00:48;;;;;;;184.38;175.27;;;;;;;;;;5083365;28;20135;-69
2023/07/21 04:03:34;;;;;;;215.95;205.30;;;;;;;;;;5084903;28;20044;-68
2023/07/21 04:06:23;;;;;;;228.82;217.45;;;;;;;;;;5080507;28;20032;-68
2023/07/21 04:09:12;;;;;;;245.90;233.50;;;;;;;;;;5084805;28;20075;-68
2023/07/21 04:11:57;;;;;;;250.55;237.93;;;;;;;;;;5082244;28;20425;-69
2023/07/21 04:14:43;;;;;;;278.23;264.25;;;;;;;;;;5082809;28;20131;-70
2023/07/21 04:17:30;;;;;;;265.48;252.07;;;;;;;;;;5081405;28;20040;-68
2023/07/21 04:20:16;;;;;;;256.17;243.25;;;;;;;;;;5082609;28;20171;-69
2023/07/21 04:23:02;;;;;;;229.13;217.35;;;;;;;;;;5082690;28;20040;-69
2023/07/21 04:25:47;;;;;;;235.88;223.82;;;;;;;;;;5078791;28;20385;-67
2023/07/21 04:28:34;;;;;;;228.48;216.88;;;;;;;;;;5071051;28;20118;-69
2023/07/21 04:31:21;;;;;;;188.70;179.02;;;;;;;;;;5082865;28;20578;-69
2023/07/21 04:34:07;;;;;;;183.93;174.48;;;;;;;;;;5079249;28;20119;-69
2023/07/21 04:36:52;;;;;;;173.68;164.77;;;;;;;;;;5082416;28;20113;-67
2023/07/21 04:39:38;;;;;;;136.88;129.82;;;;;;;;;;5081535;28;20064;-67
2023/07/21 04:42:24;;;;;;;145.05;137.50;;;;;;;;;;5070711;28;20047;-69
2023/07/21 04:45:12;;;;;;;126.78;120.25;;;;;;;;;;5080476;28;20075;-67
2023/07/21 04:47:58;;;;;;;103.35;97.90;;;;;;;;;;5081814;28;20060;-69
2023/07/21 04:50:43;;;;;;;101.88;96.53;;;;;;;;;;5084747;28;20131;-67
2023/07/21 04:53:29;;;;;;;95.38;90.30;;;;;;;;;;5084148;28;20032;-67
2023/07/21 04:56:15;;;;;;;85.70;81.22;;;;;;;;;;5086371;28;20040;-69
2023/07/21 04:59:01;;;;;;;74.75;70.85;;;;;;;;;;5079333;28;20032;-69
2023/07/21 05:01:49;;;;;;;59.00;55.90;;;;;;;;;;5083605;28;20048;-67
2023/07/21 05:04:35;;;;;;;67.57;64.00;;;;;;;;;;5079330;28;20184;-67
2023/07/21 05:07:20;;;;;;;57.60;54.63;;;;;;;;;;5082402;28;20036;-67
2023/07/21 05:10:06;;;;;;;51.00;48.35;;;;;;;;;;5082139;28;20032;-69
2023/07/21 05:12:52;;;;;;;46.53;44.08;;;;;;;;;;5085958;28;20032;-69
2023/07/21 05:15:38;;;;;;;46.78;44.30;;;;;;;;;;5076909;28;20040;-68
2023/07/21 05:18:23;;;;;;;44.50;42.20;;;;;;;;;;5083528;28;20032;-68
2023/07/21 05:21:09;;;;;;;40.60;38.45;;;;;;;;;;5086098;28;20127;-68
2023/07/21 05:23:55;;;;;;;36.45;34.50;;;;;;;;;;5082031;28;20074;-67
2023/07/21 05:26:41;;;;;;;37.60;35.65;;;;;;;;;;5080655;28;20032;-68
2023/07/21 05:29:27;;;;;;;39.70;37.65;;;;;;;;;;5084091;28;20039;-68
2023/07/21 05:32:14;;;;;;;34.28;32.42;;;;;;;;;;5079729;28;20035;-69
2023/07/21 05:34:59;;;;;;;34.28;32.47;;;;;;;;;;5082456;28;20055;-66
2023/07/21 05:37:45;;;;;;;33.17;31.35;;;;;;;;;;5084258;28;20036;-67
2023/07/21 05:40:31;;;;;;;33.60;31.70;;;;;;;;;;5081798;28;20036;-69
2023/07/21 05:43:16;;;;;;;33.60;31.80;;;;;;;;;;5085089;28;20063;-69
2023/07/21 05:46:03;;;;;;;37.50;35.55;;;;;;;;;;5083798;28;20123;-68
2023/07/21 05:48:48;;;;;;;37.38;35.33;;;;;;;;;;5077714;28;20037;-68
2023/07/21 05:51:34;;;;;;;37.03;35.08;;;;;;;;;;5080705;28;20066;-70
2023/07/21 05:54:20;;;;;;;29.45;27.55;;;;;;;;;;5086918;28;20670;-71
2023/07/21 05:57:06;;;;;;;33.08;31.33;;;;;;;;;;5083055;28;20059;-68
2023/07/21 05:59:52;;;;;;;31.88;30.17;;;;;;;;;;5081491;28;20050;-69
2023/07/21 06:02:37;;;;;;;33.38;31.48;;;;;;;;;;5085044;28;20797;-68
2023/07/21 06:05:23;;;;;;;37.78;35.47;;;;;;;;;;5080676;28;20077;-69
2023/07/21 06:08:09;;;;;;;42.42;40.25;;;;;;;;;;5083519;28;20569;-69
2023/07/21 06:10:57;;;;;;;55.95;52.88;;;;;;;;;;5083283;28;20055;-69
2023/07/21 06:13:43;;;;;;;26.00;24.30;;;;;;;;;;5083089;28;20047;-68
2023/07/21 06:16:29;;;;;;;38.47;36.45;;;;;;;;;;5080606;28;20360;-68
2023/07/21 06:19:14;;;;;;;44.25;41.97;;;;;;;;;;5085300;28;20044;-67
2023/07/21 06:22:00;;;;;;;42.92;40.67;;;;;;;;;;5082199;28;20048;-67
2023/07/21 06:24:46;;;;;;;47.63;45.03;;;;;;;;;;5077459;28;20059;-69
2023/07/21 06:27:31;;;;;;;48.53;46.03;;;;;;;;;;5079740;28;20605;-69
2023/07/21 06:30:17;;;;;;;51.63;48.63;;;;;;;;;;5082500;28;20035;-69
2023/07/21 06:33:07;;;;;;;20.02;18.90;;;;;;;;;;5081517;28;20101;-69
2023/07/21 06:35:54;;;;;;;45.90;43.50;;;;;;;;;;5076619;28;20025;-69
2023/07/21 06:38:39;;;;;;;24.70;23.38;;;;;;;;;;5080348;28;20046;-67
2023/07/21 06:41:25;;;;;;;27.25;25.63;;;;;;;;;;5081683;28;20118;-68
2023/07/21 06:44:11;;;;;;;19.17;18.08;;;;;;;;;;5084830;28;20074;-69
2023/07/21 06:46:56;;;;;;;23.98;22.42;;;;;;;;;;5080064;28;20100;-69
2023/07/21 06:49:45;;;;;;;19.27;18.17;;;;;;;;;;5066426;28;20124;-68
2023/07/21 06:52:31;;;;;;;17.67;16.67;;;;;;;;;;5078575;28;20032;-68
2023/07/21 06:55:16;;;;;;;21.38;20.17;;;;;;;;;;5076834;28;20063;-69
2023/07/21 06:58:02;;;;;;;19.40;18.30;;;;;;;;;;5080097;28;20649;-69
2023/07/21 07:00:47;;;;;;;22.20;20.90;;;;;;;;;;5081480;28;20046;-69
2023/07/21 07:03:33;;;;;;;18.48;17.48;;;;;;;;;;5084755;28;20036;-70
2023/07/21 07:06:19;;;;;;;19.60;18.30;;;;;;;;;;5083552;28;20316;-69
2023/07/21 07:09:04;;;;;;;18.90;17.80;;;;;;;;;;5086052;28;20066;-69
2023/07/21 07:11:51;;;;;;;17.88;16.88;;;;;;;;;;5086989;28;20043;-71
2023/07/21 07:14:37;;;;;;;17.55;16.55;;;;;;;;;;5087497;28;20028;-69
2023/07/21 07:17:22;;;;;;;17.20;16.20;;;;;;;;;;5082030;28;20138;-70
2023/07/21 07:20:11;;;;;;;19.85;18.75;;;;;;;;;;5085198;28;20040;-70
2023/07/21 07:22:57;;;;;;;18.25;17.25;;;;;;;;;;5085610;28;20070;-66
2023/07/21 07:25:49;;;;;;;18.48;17.45;;;;;;;;;;5085437;28;20047;-67
2023/07/21 07:28:35;;;;;;;21.48;20.30;;;;;;;;;;5084659;28;20039;-66
2023/07/21 07:31:21;;;;;;;26.98;25.58;;;;;;;;;;5085249;28;20039;-71
2023/07/21 07:34:07;;;;;;;23.85;22.55;;;;;;;;;;5084422;28;20085;-68
2023/07/21 07:36:53;;;;;;;28.58;27.08;;;;;;;;;;5083908;28;20486;-68
2023/07/21 07:39:39;;;;;;;22.27;21.00;;;;;;;;;;5084265;28;20036;-69
2023/07/21 07:42:24;;;;;;;29.65;28.13;;;;;;;;;;5084844;28;20046;-67
2023/07/21 07:45:10;;;;;;;30.55;28.88;;;;;;;;;;5086050;28;20041;-67
2023/07/21 07:47:56;;;;;;;36.15;34.30;;;;;;;;;;5086994;28;20374;-67
2023/07/21 07:50:42;;;;;;;42.67;40.47;;;;;;;;;;5082571;28;20044;-69
2023/07/21 07:53:28;;;;;;;36.47;34.58;;;;;;;;;;5085859;28;20456;-67
2023/07/21 07:56:17;;;;;;;24.08;22.77;;;;;;;;;;5086362;28;20040;-69
2023/07/21 07:59:03;;;;;;;46.72;44.33;;;;;;;;;;5084396;28;20090;-67
2023/07/21 08:01:48;;;;;;;36.72;34.78;;;;;;;;;;5086361;28;20059;-67
2023/07/21 08:04:34;;;;;;;47.30;44.90;;;;;;;;;;5084272;28;20063;-68
2023/07/21 08:07:20;;;;;;;39.42;37.42;;;;;;;;;;5084813;28;20044;-69
2023/07/21 08:10:06;;;;;;;57.08;54.20;;;;;;;;;;5084956;28;20101;-69
2023/07/21 08:12:51;;;;;;;52.70;50.05;;;;;;;;;;5084521;28;20123;-69
2023/07/21 08:15:43;;;;;;;56.75;53.80;;;;;;;;;;5071620;28;20047;-69
2023/07/21 08:18:28;;;;;;;68.57;65.18;;;;;;;;;;5083813;28;20028;-68
2023/07/21 08:21:23;;;;;;;67.38;63.85;;;;;;;;;;5081082;28;20056;-67
2023/07/21 08:24:09;;;;;;;57.17;54.30;;;;;;;;;;5086434;28;20455;-69
2023/07/21 08:26:54;;;;;;;31.58;29.92;;;;;;;;;;5084708;28;20123;-69
2023/07/21 08:29:40;;;;;;;61.90;58.80;;;;;;;;;;5082426;28;20237;-68
2023/07/21 08:32:26;;;;;;;36.28;34.38;;;;;;;;;;5071887;28;20138;-69
2023/07/21 08:35:11;;;;;;;60.47;57.47;;;;;;;;;;5084549;28;20471;-69
2023/07/21 08:37:57;;;;;;;74.97;71.25;;;;;;;;;;5083936;28;20086;-69
2023/07/21 08:40:48;;;;;;;79.53;75.57;;;;;;;;;;5084407;28;20467;-69
2023/07/21 08:43:35;;;;;;;78.75;74.85;;;;;;;;;;5084619;28;20435;-69
2023/07/21 08:46:20;;;;;;;72.45;68.85;;;;;;;;;;5089641;28;20097;-69
2023/07/21 08:49:07;;;;;;;137.25;129.55;;;;;;;;;;5084400;28;20036;-69
2023/07/21 08:51:52;;;;;;;58.15;55.17;;;;;;;;;;5082163;28;20173;-71
2023/07/21 08:54:38;;;;;;;71.28;67.75;;;;;;;;;;5082955;28;20101;-70
2023/07/21 08:57:24;;;;;;;78.03;74.15;;;;;;;;;;5086842;28;20456;-69
2023/07/21 09:00:10;;;;;;;197.15;187.68;;;;;;;;;;5082504;28;20463;-68
2023/07/21 09:02:59;;;;;;;84.57;80.38;;;;;;;;;;5085076;28;20046;-67
2023/07/21 09:05:46;;;;;;;119.15;113.32;;;;;;;;;;5079139;28;20547;-68
2023/07/21 09:08:33;;;;;;;91.45;86.90;;;;;;;;;;5087101;28;20067;-68
2023/07/21 09:11:19;;;;;;;171.00;161.95;;;;;;;;;;5084898;28;20032;-69
2023/07/21 09:14:04;;;;;;;74.43;70.70;;;;;;;;;;5081049;28;20115;-70
2023/07/21 09:16:52;;;;;;;76.38;72.57;;;;;;;;;;5081032;28;20510;-68
2023/07/21 09:19:40;;;;;;;152.98;145.55;;;;;;;;;;5086236;28;20079;-70
2023/07/21 09:22:26;;;;;;;105.75;100.57;;;;;;;;;;5071208;28;20038;-70
2023/07/21 09:25:21;;;;;;;83.35;79.25;;;;;;;;;;5084638;28;20465;-70
2023/07/21 09:28:06;;;;;;;81.13;77.13;;;;;;;;;;5085859;28;20101;-68
2023/07/21 09:30:53;;;;;;;74.80;71.07;;;;;;;;;;5083096;28;20050;-69
2023/07/21 09:33:41;;;;;;;93.72;88.95;;;;;;;;;;5081793;28;20093;-70
2023/07/21 09:36:27;;;;;;;83.88;79.75;;;;;;;;;;5083914;28;20044;-68
2023/07/21 09:39:17;;;;;;;83.72;79.60;;;;;;;;;;5083391;28;20036;-70
2023/07/21 09:42:03;;;;;;;;;;;;;;;;;;5082356;28;20119;-68
2023/07/21 09:44:49;;;;;;;182.68;173.82;;;;;;;;;;5082951;28;19936;-68
2023/07/21 09:47:39;;;;;;;208.73;198.63;;;;;;;;;;5081389;28;20054;-68
2023/07/21 09:50:25;;;;;;;156.00;148.30;;;;;;;;;;5082182;28;20051;-68
2023/07/21 09:53:14;;;;;;;155.88;148.23;;;;;;;;;;5086693;28;20158;-69
2023/07/21 09:56:01;;;;;;;120.45;114.50;;;;;;;;;;5085207;28;20051;-69
2023/07/21 09:58:53;;;;;;;76.93;73.13;;;;;;;;;;5080445;28;20048;-69
2023/07/21 10:01:40;;;;;;;60.42;57.28;;;;;;;;;;5081431;28;20048;-70
2023/07/21 10:04:27;;;;;;;64.40;61.17;;;;;;;;;;5082972;28;20493;-70
2023/07/21 10:07:13;;;;;;;76.07;72.30;;;;;;;;;;5083104;28;20044;-70
2023/07/21 10:10:00;;;;;;;62.85;59.63;;;;;;;;;;5082336;28;20036;-72
2023/07/21 10:12:49;;;;;;;106.75;101.43;;;;;;;;;;5083556;28;20043;-71
2023/07/21 10:15:36;;;;;;;120.60;114.65;;;;;;;;;;5083956;28;20439;-71
2023/07/21 10:18:21;;;;;;;96.57;91.80;;;;;;;;;;5081047;28;20036;-68
2023/07/21 10:21:08;;;;;;;165.35;157.20;;;;;;;;;;5087276;28;20636;-69
2023/07/21 10:23:54;;;;;;;164.35;156.30;;;;;;;;;;5082533;28;20040;-69
2023/07/21 10:26:46;;;;;;;170.93;162.57;;;;;;;;;;5080432;28;20048;-70
2023/07/21 10:29:32;;;;;;;133.25;126.50;;;;;;;;;;5087931;28;20028;-70
2023/07/21 10:32:21;;;;;;;176.93;168.25;;;;;;;;;;5071133;28;20375;-70
2023/07/21 10:35:30;;;;;;;67.88;64.45;;;;;;;;;;5081773;28;20044;-69
2023/07/21 10:38:22;;;;;;;165.00;156.93;;;;;;;;;;5079499;28;20036;-70
2023/07/21 10:41:07;;;;;;;175.90;167.25;;;;;;;;;;5087224;28;20036;-69
2023/07/21 10:43:53;;;;;;;163.65;155.63;;;;;;;;;;5086322;28;20031;-69
2023/07/21 10:46:41;;;;;;;161.63;153.70;;;;;;;;;;5085130;28;20527;-69
2023/07/21 10:49:27;;;;;;;130.45;124.03;;;;;;;;;;5058029;28;20350;-70
2023/07/21 10:52:13;;;;;;;136.90;130.15;;;;;;;;;;5075645;28;20101;-71
2023/07/21 10:54:59;;;;;;;168.48;160.25;;;;;;;;;;5085812;28;20040;-70
2023/07/21 10:57:44;;;;;;;174.35;165.85;;;;;;;;;;5073683;28;20048;-69
2023/07/21 11:00:42;;;;;;;108.47;103.13;;;;;;;;;;5085603;28;20052;-70
2023/07/21 11:03:28;;;;;;;143.57;136.52;;;;;;;;;;5088198;28;20035;-70
2023/07/21 11:06:14;;;;;;;140.25;133.32;;;;;;;;;;5088531;28;20158;-69
2023/07/21 11:09:00;;;;;;;149.88;142.50;;;;;;;;;;5086902;28;20055;-69
2023/07/21 11:11:47;;;;;;;177.30;168.63;;;;;;;;;;5089093;28;20416;-72
2023/07/21 11:14:33;;;;;;;127.80;121.40;;;;;;;;;;5083134;28;20055;-70
2023/07/21 11:17:19;;;;;;;173.50;165.02;;;;;;;;;;5080421;28;20036;-71
2023/07/21 11:20:06;;;;;;;131.68;125.18;;;;;;;;;;5081581;28;22502;-71
2023/07/21 11:22:51;;;;;;;143.30;136.18;;;;;;;;;;5086910;28;20047;-70
2023/07/21 11:25:37;;;;;;;162.20;154.27;;;;;;;;;;5089164;28;20043;-71
2023/07/21 11:28:26;;;;;;;170.10;161.75;;;;;;;;;;5088429;28;20032;-70
2023/07/21 11:31:13;;;;;;;164.70;156.63;;;;;;;;;;5084408;28;20070;-69
2023/07/21 11:33:58;;;;;;;170.75;162.43;;;;;;;;;;5070514;28;20041;-69
2023/07/21 11:36:45;;;;;;;161.00;153.05;;;;;;;;;;5075049;28;20398;-70
2023/07/21 11:39:31;;;;;;;133.65;127.07;;;;;;;;;;5071045;28;20045;-70
2023/07/21 11:42:17;;;;;;;151.30;143.75;;;;;;;;;;5081948;28;20036;-69
2023/07/21 11:45:02;;;;;;;152.25;144.77;;;;;;;;;;5084581;28;20105;-71
2023/07/21 11:47:48;;;;;;;157.98;150.20;;;;;;;;;;5082253;28;20039;-70
2023/07/21 11:50:34;;;;;;;161.77;153.27;;;;;;;;;;5084879;28;20052;-70
2023/07/21 11:53:22;;;;;;;154.18;146.57;;;;;;;;;;5086162;28;20607;-69
2023/07/21 11:56:08;;;;;;;137.55;130.73;;;;;;;;;;5081946;28;20054;-69
2023/07/21 11:58:53;;;;;;;112.28;106.72;;;;;;;;;;5085250;28;20093;-68
2023/07/21 12:01:39;;;;;;;92.88;88.15;;;;;;;;;;5083710;28;20036;-69
2023/07/21 12:04:25;;;;;;;91.03;86.53;;;;;;;;;;5084577;28;20059;-69
2023/07/21 12:07:11;;;;;;;191.20;181.85;;;;;;;;;;5083908;28;20765;-68
2023/07/21 12:09:58;;;;;;;208.38;198.25;;;;;;;;;;5081622;28;20463;-69
2023/07/21 12:12:44;;;;;;;310.33;295.20;;;;;;;;;;5081845;28;20884;-69
2023/07/21 12:15:30;;;;;;;300.33;285.67;;;;;;;;;;5083762;28;20710;-70
2023/07/21 12:18:17;;;;;;;305.02;290.17;;;;;;;;;;5070133;28;20036;-70
2023/07/21 12:21:03;;;;;;;260.55;248.02;;;;;;;;;;5082089;28;20051;-69
2023/07/21 12:23:49;;;;;;;215.30;204.90;;;;;;;;;;5081511;28;20146;-70
2023/07/21 12:26:34;;;;;;;103.38;98.28;;;;;;;;;;5088273;28;20459;-69
2023/07/21 12:29:20;;;;;;;141.32;134.40;;;;;;;;;;5081024;28;20065;-69
2023/07/21 12:32:06;;;;;;;216.15;205.75;;;;;;;;;;5083986;28;20036;-69
2023/07/21 12:34:52;;;;;;;101.53;96.50;;;;;;;;;;5081425;28;20068;-71
2023/07/21 12:37:39;;;;;;;81.88;77.85;;;;;;;;;;5083710;28;20131;-68
2023/07/21 12:40:25;;;;;;;165.35;157.30;;;;;;;;;;5088175;28;20041;-71
2023/07/21 12:43:11;;;;;;;105.53;100.38;;;;;;;;;;5083263;28;20499;-68
2023/07/21 12:45:57;;;;;;;86.03;81.75;;;;;;;;;;5082438;28;20090;-72
2023/07/21 12:48:43;;;;;;;81.72;77.72;;;;;;;;;;5083034;28;20035;-68
2023/07/21 12:51:29;;;;;;;128.20;121.93;;;;;;;;;;5083324;28;20031;-68
2023/07/21 12:54:14;;;;;;;92.65;88.05;;;;;;;;;;5080929;28;20493;-71
2023/07/21 12:57:00;;;;;;;94.95;90.18;;;;;;;;;;5086597;28;20039;-69
2023/07/21 12:59:46;;;;;;;94.30;89.65;;;;;;;;;;5086756;28;20674;-68
2023/07/21 13:02:32;;;;;;;76.32;72.53;;;;;;;;;;5087352;28;20634;-68
2023/07/21 13:05:18;;;;;;;72.85;69.25;;;;;;;;;;5080884;28;20035;-71
2023/07/21 13:08:05;;;;;;;57.35;54.38;;;;;;;;;;5082273;28;20097;-71
2023/07/21 13:10:52;;;;;;;66.13;62.83;;;;;;;;;;5083297;28;20036;-68
2023/07/21 13:13:38;;;;;;;96.03;91.25;;;;;;;;;;5083003;28;20109;-71
2023/07/21 13:16:26;;;;;;;74.72;71.05;;;;;;;;;;5085386;28;20032;-70
2023/07/21 13:19:12;;;;;;;73.47;69.82;;;;;;;;;;5066710;28;20044;-71
2023/07/21 13:21:58;;;;;;;75.20;71.47;;;;;;;;;;5084083;28;20136;-68
2023/07/21 13:24:43;;;;;;;70.40;66.90;;;;;;;;;;5088859;28;20039;-71
2023/07/21 13:27:29;;;;;;;60.08;57.03;;;;;;;;;;5082738;28;20044;-72
2023/07/21 13:30:15;;;;;;;37.83;35.88;;;;;;;;;;5069493;28;20051;-67
2023/07/21 13:33:01;;;;;;;36.58;34.70;;;;;;;;;;5081616;28;20044;-70
2023/07/21 13:35:48;;;;;;;31.00;29.40;;;;;;;;;;5085900;28;20109;-71
2023/07/21 13:38:34;;;;;;;28.77;27.27;;;;;;;;;;5082599;28;20465;-67
2023/07/21 13:41:19;;;;;;;27.75;26.30;;;;;;;;;;5086969;28;20042;-67
2023/07/21 13:44:05;;;;;;;31.60;29.95;;;;;;;;;;5082222;28;20047;-67
2023/07/21 13:46:51;;;;;;;27.23;25.77;;;;;;;;;;5086154;28;20036;-70
2023/07/21 13:49:37;;;;;;;29.00;27.50;;;;;;;;;;5080098;28;20033;-71
2023/07/21 13:52:23;;;;;;;31.88;30.20;;;;;;;;;;5082982;28;20039;-70
2023/07/21 13:55:08;;;;;;;23.08;21.83;;;;;;;;;;5086239;28;20032;-70
2023/07/21 13:57:54;;;;;;;29.90;28.38;;;;;;;;;;5082992;28;20097;-67
2023/07/21 14:00:40;;;;;;;25.00;23.70;;;;;;;;;;5081631;28;20129;-67
2023/07/21 14:03:26;;;;;;;26.55;25.13;;;;;;;;;;5085275;28;20610;-71
2023/07/21 14:06:15;;;;;;;23.17;21.98;;;;;;;;;;5084963;28;20059;-68
2023/07/21 14:09:01;;;;;;;24.13;22.83;;;;;;;;;;5084080;28;20115;-68
2023/07/21 14:11:46;;;;;;;26.58;25.17;;;;;;;;;;5083695;28;20076;-71
2023/07/21 14:14:33;;;;;;;24.23;22.92;;;;;;;;;;5087443;28;20032;-71
2023/07/21 14:17:18;;;;;;;28.30;26.70;;;;;;;;;;5082486;28;20383;-72
2023/07/21 14:20:09;;;;;;;19.48;18.42;;;;;;;;;;5083324;28;20048;-68
2023/07/21 14:22:55;;;;;;;26.23;24.85;;;;;;;;;;5086699;28;20036;-68
2023/07/21 14:25:41;;;;;;;22.15;20.90;;;;;;;;;;5082936;28;20054;-68
2023/07/21 14:28:27;;;;;;;27.92;26.45;;;;;;;;;;5068604;28;20100;-68
2023/07/21 14:31:12;;;;;;;21.65;20.48;;;;;;;;;;5081510;28;20041;-68
2023/07/21 14:33:58;;;;;;;24.63;23.30;;;;;;;;;;5084270;28;20078;-68
2023/07/21 14:36:44;;;;;;;29.08;27.42;;;;;;;;;;5080066;28;20059;-72
2023/07/21 14:39:30;;;;;;;30.27;28.65;;;;;;;;;;5082461;28;20391;-68
2023/07/21 14:42:15;;;;;;;26.63;25.23;;;;;;;;;;5070396;28;20537;-71
2023/07/21 14:45:02;;;;;;;30.25;28.67;;;;;;;;;;5073052;28;20086;-68
2023/07/21 14:47:49;;;;;;;25.10;23.75;;;;;;;;;;5082830;28;20048;-71
2023/07/21 14:50:34;;;;;;;25.55;24.20;;;;;;;;;;5083910;28;20066;-70
2023/07/21 14:53:20;;;;;;;25.75;24.40;;;;;;;;;;5081507;28;20048;-71
2023/07/21 14:56:06;;;;;;;25.50;24.15;;;;;;;;;;5084158;28;20376;-71
2023/07/21 14:58:51;;;;;;;33.15;31.40;;;;;;;;;;5087321;28;20099;-71
2023/07/21 15:01:37;;;;;;;30.45;28.85;;;;;;;;;;5069416;28;20056;-71
2023/07/21 15:04:24;;;;;;;28.25;26.75;;;;;;;;;;5082954;28;20046;-68
2023/07/21 15:07:11;;;;;;;27.90;26.45;;;;;;;;;;5088140;28;20530;-71
2023/07/21 15:09:57;;;;;;;40.47;38.40;;;;;;;;;;5085177;28;20032;-71
2023/07/21 15:12:44;;;;;;;38.72;36.75;;;;;;;;;;5082131;28;20036;-68
2023/07/21 15:15:29;;;;;;;62.70;59.58;;;;;;;;;;5083392;28;20066;-71
2023/07/21 15:18:15;;;;;;;45.60;43.25;;;;;;;;;;5083164;28;20043;-68
2023/07/21 15:21:00;;;;;;;35.58;33.75;;;;;;;;;;5083062;28;20484;-72
2023/07/21 15:23:46;;;;;;;24.27;22.98;;;;;;;;;;5085407;28;20123;-70
2023/07/21 15:26:32;;;;;;;27.33;25.85;;;;;;;;;;5083133;28;20036;-67
2023/07/21 15:29:18;;;;;;;41.55;39.45;;;;;;;;;;5089234;28;20044;-70
2023/07/21 15:32:04;;;;;;;31.63;29.92;;;;;;;;;;5084102;28;20447;-67
2023/07/21 15:34:49;;;;;;;36.70;33.85;;;;;;;;;;5071377;28;20949;-72
2023/07/21 15:37:35;;;;;;;36.35;34.33;;;;;;;;;;5088650;28;20100;-69
2023/07/21 15:40:21;;;;;;;38.95;36.88;;;;;;;;;;5084754;28;20070;-70
2023/07/21 15:43:06;;;;;;;54.63;51.88;;;;;;;;;;5090994;28;20070;-67
2023/07/21 15:45:52;;;;;;;66.68;63.35;;;;;;;;;;5084150;28;20040;-70
2023/07/21 15:48:38;;;;;;;63.50;60.35;;;;;;;;;;5084085;28;20051;-67
2023/07/21 15:51:23;;;;;;;56.13;53.33;;;;;;;;;;5088675;28;20020;-69
2023/07/21 15:54:10;;;;;;;69.57;66.10;;;;;;;;;;5085783;28;20039;-67
2023/07/21 15:56:55;;;;;;;75.13;71.40;;;;;;;;;;5085910;28;20135;-70
2023/07/21 15:59:41;;;;;;;86.93;82.60;;;;;;;;;;5086137;28;20073;-69